Time;durP1;ratioP1;P1;durP2;ratioP2;P2;SDS_P1;SDS_P2;PMS_P1;PMS_P2;Temp;Humidity;BMP_temperature;BMP_pressure;BME280_temperature;BME280_humidity;BME280_pressure;Samples;Min_cycle;Max_cycle;Signal;HPM_P1;HPM_P2
2022/09/05 00:00:16;;;;;;;3.25;1.92;;;18.20;99.60;;;;;;4987103;28;20046;-80
2022/09/05 00:03:06;;;;;;;2.83;1.88;;;18.20;99.60;;;;;;4981855;28;20046;-80
2022/09/05 00:06:04;;;;;;;2.38;1.80;;;18.10;99.90;;;;;;4995604;28;20044;-81
2022/09/05 00:08:57;;;;;;;5.68;2.20;;;18.10;99.80;;;;;;5006006;22;20068;-81
2022/09/05 00:11:42;;;;;;;2.63;1.98;;;18.10;99.90;;;;;;5015278;28;20046;-81
2022/09/05 00:14:18;;;;;;;3.00;1.85;;;18.10;99.90;;;;;;4979513;28;20085;-81
2022/09/05 00:17:16;;;;;;;2.80;1.80;;;18.00;99.90;;;;;;4973993;28;20038;-81
2022/09/05 00:20:03;;;;;;;3.83;1.90;;;18.00;99.90;;;;;;4979482;28;20034;-81
2022/09/05 00:22:37;;;;;;;3.50;2.03;;;17.90;99.90;;;;;;4994085;28;20499;-80
2022/09/05 00:25:12;;;;;;;5.93;2.53;;;17.90;99.90;;;;;;4998827;28;20042;-80
2022/09/05 00:28:08;;;;;;;4.07;2.22;;;17.90;99.90;;;;;;4976440;28;20050;-80
2022/09/05 00:31:02;;;;;;;3.42;2.40;;;17.90;99.90;;;;;;5018340;28;20135;-80
2022/09/05 00:33:35;;;;;;;3.90;2.40;;;17.90;99.90;;;;;;5015475;28;20067;-80
2022/09/05 00:36:19;;;;;;;3.40;2.00;;;17.90;99.90;;;;;;5017131;28;20388;-80
2022/09/05 00:38:55;;;;;;;2.72;2.10;;;17.90;99.90;;;;;;5001344;28;20403;-80
2022/09/05 00:41:21;;;;;;;3.40;2.17;;;17.90;99.90;;;;;;5003140;28;20046;-80
2022/09/05 00:43:49;;;;;;;3.70;2.50;;;17.90;99.90;;;;;;4981897;28;20050;-80
2022/09/05 00:46:30;;;;;;;2.72;1.95;;;17.90;99.90;;;;;;4998317;28;20370;-80
2022/09/05 00:49:15;;;;;;;2.40;1.70;;;17.90;99.90;;;;;;4998017;28;20048;-80
2022/09/05 00:51:49;;;;;;;3.35;2.10;;;17.90;99.90;;;;;;4997763;28;20042;-80
2022/09/05 00:54:50;;;;;;;3.10;1.80;;;17.70;99.90;;;;;;4998340;28;20089;-80
2022/09/05 00:57:41;;;;;;;3.08;1.95;;;17.70;99.90;;;;;;4996771;28;20098;-80
2022/09/05 01:00:34;;;;;;;2.72;1.75;;;17.70;99.90;;;;;;4997926;28;20133;-80
2022/09/05 01:03:19;;;;;;;3.75;2.25;;;17.60;99.90;;;;;;4997502;28;20046;-80
2022/09/05 01:06:19;;;;;;;4.82;2.20;;;17.60;99.90;;;;;;5003720;28;20076;-80
2022/09/05 01:09:08;;;;;;;4.25;2.53;;;17.60;99.90;;;;;;5005002;28;20054;-80
2022/09/05 01:12:22;;;;;;;3.30;2.10;;;17.60;99.90;;;;;;4981524;28;20042;-80
2022/09/05 01:15:02;;;;;;;4.40;2.38;;;17.50;99.90;;;;;;4945972;28;20062;-80
2022/09/05 01:17:49;;;;;;;3.40;2.05;;;17.50;99.90;;;;;;4978786;28;20447;-80
2022/09/05 01:20:52;;;;;;;2.92;2.00;;;17.50;99.90;;;;;;4979534;28;20046;-80
2022/09/05 01:23:36;;;;;;;3.70;2.60;;;17.50;99.90;;;;;;5017165;28;20042;-80
2022/09/05 01:26:23;;;;;;;2.58;1.80;;;17.50;99.90;;;;;;5017146;28;20049;-80
2022/09/05 01:28:54;;;;;;;;;;;17.40;99.90;;;;;;4995406;28;20172;-81
2022/09/05 01:31:35;;;;;;;3.88;2.40;;;17.40;99.90;;;;;;5007696;28;20007;-81
2022/09/05 01:34:26;;;;;;;4.35;2.50;;;17.40;99.90;;;;;;5017327;28;20080;-81
2022/09/05 01:36:57;;;;;;;3.55;2.40;;;17.30;99.90;;;;;;5015557;28;20061;-81
2022/09/05 01:39:26;;;;;;;3.63;2.20;;;17.30;99.90;;;;;;4999288;28;20038;-81
2022/09/05 01:42:07;;;;;;;5.53;2.80;;;17.30;99.90;;;;;;4996503;28;20076;-81
2022/09/05 01:44:55;;;;;;;3.50;2.00;;;17.20;99.90;;;;;;5008388;28;20099;-81
2022/09/05 01:47:38;;;;;;;4.35;2.40;;;17.20;99.90;;;;;;5016597;28;20050;-82
2022/09/05 01:50:36;;;;;;;4.20;2.55;;;17.10;99.90;;;;;;5000691;28;20049;-81
2022/09/05 01:53:10;;;;;;;3.03;2.20;;;17.00;99.90;;;;;;4970087;28;20053;-81
2022/09/05 01:56:01;;;;;;;3.17;2.20;;;17.00;99.90;;;;;;4999053;28;20082;-81
2022/09/05 01:58:36;;;;;;;5.70;2.17;;;17.00;99.90;;;;;;4990380;28;20073;-81
2022/09/05 02:01:40;;;;;;;5.45;2.55;;;16.90;99.90;;;;;;4980876;28;20038;-80
2022/09/05 02:04:20;;;;;;;4.47;2.45;;;16.80;99.90;;;;;;4900247;29;20048;-80
2022/09/05 02:07:01;;;;;;;5.18;2.95;;;16.80;99.90;;;;;;4883572;29;20044;-80
2022/09/05 02:09:42;;;;;;;3.85;2.63;;;16.80;99.90;;;;;;4955254;28;20085;-80
2022/09/05 02:12:14;;;;;;;3.85;2.50;;;16.80;99.90;;;;;;4996431;28;20045;-80
2022/09/05 02:14:43;;;;;;;4.40;2.42;;;16.70;99.90;;;;;;4996337;28;20050;-80
2022/09/05 02:17:17;;;;;;;3.67;2.30;;;16.70;99.90;;;;;;4984764;28;20033;-81
2022/09/05 02:19:51;;;;;;;4.57;2.55;;;16.70;99.90;;;;;;5000154;28;20065;-81
2022/09/05 02:22:27;;;;;;;5.05;2.58;;;16.70;99.90;;;;;;5000584;28;20041;-81
2022/09/05 02:25:06;;;;;;;6.10;2.40;;;16.70;99.90;;;;;;4996812;28;20037;-81
2022/09/05 02:28:01;;;;;;;7.72;3.13;;;16.60;99.90;;;;;;5007633;28;20042;-81
2022/09/05 02:30:32;;;;;;;4.43;2.75;;;16.60;99.90;;;;;;4990240;28;20382;-81
2022/09/05 02:33:20;;;;;;;4.20;2.30;;;16.60;99.90;;;;;;4995886;28;20053;-81
2022/09/05 02:36:06;;;;;;;3.47;2.33;;;16.50;99.90;;;;;;5007457;28;20038;-81
2022/09/05 02:38:43;;;;;;;3.20;2.10;;;16.40;99.90;;;;;;4980565;28;20423;-80
2022/09/05 02:41:39;;;;;;;3.45;2.40;;;16.30;99.90;;;;;;4979315;28;20065;-80
2022/09/05 02:44:14;;;;;;;3.70;2.30;;;16.30;99.90;;;;;;4976916;28;20124;-80
2022/09/05 02:46:59;;;;;;;3.58;2.47;;;16.20;99.90;;;;;;4976796;28;20100;-80
2022/09/05 02:49:54;;;;;;;4.10;2.50;;;16.10;99.90;;;;;;4961510;28;20105;-80
2022/09/05 02:52:25;;;;;;;3.97;2.30;;;16.10;99.90;;;;;;4973331;28;20049;-80
2022/09/05 02:54:54;;;;;;;6.00;2.25;;;16.00;99.90;;;;;;4996281;28;20053;-80
2022/09/05 02:57:47;;;;;;;3.53;2.50;;;16.00;99.90;;;;;;4980089;28;20092;-80
2022/09/05 03:00:20;;;;;;;4.18;2.47;;;15.90;99.90;;;;;;4980447;28;20050;-80
2022/09/05 03:02:46;;;;;;;4.68;2.00;;;15.90;99.90;;;;;;4988184;28;20392;-80
2022/09/05 03:05:33;;;;;;;5.72;2.50;;;15.90;99.90;;;;;;4977309;28;20125;-80
2022/09/05 03:08:20;;;;;;;4.82;2.50;;;15.80;99.90;;;;;;4976834;28;20451;-80
2022/09/05 03:11:25;;;;;;;3.53;2.47;;;15.80;99.90;;;;;;4961108;28;20416;-80
2022/09/05 03:14:10;;;;;;;2.60;2.05;;;15.70;99.90;;;;;;4976295;28;20093;-80
2022/09/05 03:16:54;;;;;;;4.60;2.50;;;15.70;99.90;;;;;;4977583;28;20033;-80
2022/09/05 03:19:53;;;;;;;3.40;2.45;;;15.70;99.90;;;;;;4995886;28;20100;-80
2022/09/05 03:23:00;;;;;;;5.25;2.80;;;15.60;99.90;;;;;;4999843;28;20037;-80
2022/09/05 03:26:03;;;;;;;4.25;2.78;;;15.60;99.90;;;;;;4951742;28;20064;-80
2022/09/05 03:28:59;;;;;;;4.00;2.50;;;15.60;99.90;;;;;;5002232;28;20041;-80
2022/09/05 03:31:37;;;;;;;4.78;2.38;;;15.60;99.90;;;;;;4975589;28;20092;-80
2022/09/05 03:34:27;;;;;;;4.07;2.17;;;15.60;99.90;;;;;;4999651;28;20046;-80
2022/09/05 03:37:41;;;;;;;4.70;2.70;;;15.50;99.90;;;;;;4999259;28;20042;-80
2022/09/05 03:40:35;;;;;;;4.25;2.65;;;15.40;99.90;;;;;;4995175;28;20053;-80
2022/09/05 03:43:06;;;;;;;4.15;2.35;;;15.40;99.90;;;;;;5000023;28;20042;-81
2022/09/05 03:45:41;;;;;;;4.10;2.50;;;15.40;99.90;;;;;;4983579;28;20038;-81
2022/09/05 03:48:13;;;;;;;3.80;2.47;;;15.30;99.90;;;;;;4999662;28;20084;-81
2022/09/05 03:50:44;;;;;;;3.60;2.00;;;15.30;99.90;;;;;;4987863;28;20037;-81
2022/09/05 03:53:34;;;;;;;4.38;2.75;;;15.30;99.90;;;;;;5002749;28;20041;-81
2022/09/05 03:56:15;;;;;;;4.65;3.13;;;15.30;99.90;;;;;;5015402;28;20121;-81
2022/09/05 03:59:06;;;;;;;4.35;2.38;;;15.20;99.90;;;;;;5007682;28;20076;-81
2022/09/05 04:01:44;;;;;;;4.22;2.65;;;15.20;99.90;;;;;;5018724;28;20044;-81
2022/09/05 04:04:47;;;;;;;3.80;2.40;;;15.10;99.90;;;;;;5019129;28;20064;-81
2022/09/05 04:07:23;;;;;;;5.45;2.40;;;15.10;99.90;;;;;;5005707;28;20558;-81
2022/09/05 04:10:25;;;;;;;4.22;2.58;;;15.00;99.90;;;;;;5017095;28;20054;-81
2022/09/05 04:13:15;;;;;;;4.15;2.70;;;15.00;99.90;;;;;;4998386;28;20107;-81
2022/09/05 04:15:49;;;;;;;4.55;2.47;;;14.90;99.90;;;;;;4999473;28;20475;-80
2022/09/05 04:18:18;;;;;;;4.80;3.00;;;14.90;99.90;;;;;;5002307;28;20053;-80
2022/09/05 04:21:14;;;;;;;6.55;3.05;;;14.90;99.90;;;;;;5017166;28;20048;-80
2022/09/05 04:24:08;;;;;;;3.95;2.90;;;14.90;99.90;;;;;;5002384;28;20111;-80
2022/09/05 04:26:46;;;;;;;4.75;3.15;;;14.90;99.90;;;;;;5002157;28;20049;-80
2022/09/05 04:29:46;;;;;;;4.90;3.28;;;14.90;99.90;;;;;;4996153;28;20171;-80
2022/09/05 04:32:43;;;;;;;6.47;3.58;;;14.90;99.90;;;;;;5001302;28;20136;-81
2022/09/05 04:35:39;;;;;;;6.30;3.97;;;15.00;99.90;;;;;;5012352;28;20399;-81
2022/09/05 04:38:17;;;;;;;5.18;2.95;;;15.00;99.90;;;;;;4998578;28;20042;-81
2022/09/05 04:41:03;;;;;;;5.10;3.22;;;15.00;99.90;;;;;;4981281;28;20042;-81
2022/09/05 04:43:31;;;;;;;5.55;3.90;;;15.00;99.90;;;;;;4983533;28;20125;-81
2022/09/05 04:46:07;;;;;;;5.90;3.55;;;15.10;99.90;;;;;;4986617;28;20041;-81
2022/09/05 04:48:48;;;;;;;5.38;3.17;;;15.10;99.90;;;;;;5009208;28;20084;-80
2022/09/05 04:51:39;;;;;;;5.35;3.13;;;15.10;99.90;;;;;;4998198;28;20042;-80
2022/09/05 04:54:10;;;;;;;5.35;3.55;;;15.10;99.90;;;;;;4999619;28;20042;-80
2022/09/05 04:56:45;;;;;;;4.95;2.95;;;15.10;99.90;;;;;;5010043;28;20626;-80
2022/09/05 04:59:19;;;;;;;7.15;4.00;;;15.10;99.90;;;;;;4997151;28;20068;-80
2022/09/05 05:01:53;;;;;;;5.22;3.83;;;15.20;99.90;;;;;;4997720;28;20038;-80
2022/09/05 05:04:22;;;;;;;5.18;3.50;;;15.20;99.90;;;;;;4998911;28;22356;-81
2022/09/05 05:07:17;;;;;;;6.78;3.30;;;15.20;99.90;;;;;;5005967;28;20049;-81
2022/09/05 05:09:49;;;;;;;7.68;3.92;;;15.20;99.90;;;;;;4995257;28;20049;-81
2022/09/05 05:12:59;;;;;;;7.88;4.05;;;15.10;99.90;;;;;;4996479;28;20085;-82
2022/09/05 05:15:26;;;;;;;5.95;3.75;;;15.10;99.90;;;;;;4938749;28;20053;-81
2022/09/05 05:18:27;;;;;;;5.72;3.22;;;15.20;99.90;;;;;;4993057;28;20194;-81
2022/09/05 05:21:09;;;;;;;5.47;3.28;;;15.20;99.90;;;;;;4959473;28;20144;-81
2022/09/05 05:23:37;;;;;;;4.15;3.15;;;15.20;99.90;;;;;;4989769;28;20042;-81
2022/09/05 05:26:09;;;;;;;5.65;3.88;;;15.30;99.90;;;;;;5006086;28;20113;-81
2022/09/05 05:28:59;;;;;;;4.43;3.40;;;15.30;99.90;;;;;;4989201;28;20034;-82
2022/09/05 05:31:25;;;;;;;4.97;3.58;;;15.30;99.90;;;;;;4991785;28;20038;-81
2022/09/05 05:33:53;;;;;;;7.68;4.68;;;15.40;99.90;;;;;;5008257;28;20148;-81
2022/09/05 05:36:56;;;;;;;6.22;3.95;;;15.50;99.90;;;;;;4964414;28;20042;-82
2022/09/05 05:39:25;;;;;;;5.80;4.40;;;15.60;99.90;;;;;;4978696;28;20378;-81
2022/09/05 05:41:53;;;;;;;6.10;4.00;;;15.70;99.90;;;;;;4978442;28;20044;-82
2022/09/05 05:44:37;;;;;;;12.15;4.10;;;15.80;99.90;;;;;;4971213;28;20052;-81
2022/09/05 05:47:17;;;;;;;8.50;4.72;;;15.90;99.90;;;;;;4990004;28;20038;-81
2022/09/05 05:50:06;;;;;;;6.43;3.90;;;16.00;99.90;;;;;;5006334;28;20415;-81
2022/09/05 05:53:00;;;;;;;8.63;4.43;;;16.10;99.90;;;;;;4995672;28;20436;-81
2022/09/05 05:55:41;;;;;;;5.45;3.65;;;16.20;99.90;;;;;;5008952;28;20078;-80
2022/09/05 05:58:31;;;;;;;7.15;4.25;;;16.30;99.90;;;;;;5010230;28;20034;-80
2022/09/05 06:01:18;;;;;;;7.22;3.47;;;16.40;99.90;;;;;;5010840;28;20038;-80
2022/09/05 06:03:53;;;;;;;5.72;3.80;;;16.50;99.90;;;;;;4980965;28;20037;-79
2022/09/05 06:06:46;;;;;;;5.50;3.72;;;16.60;99.90;;;;;;4997464;28;20041;-79
2022/09/05 06:09:37;;;;;;;7.32;3.70;;;16.70;99.90;;;;;;4991388;28;20457;-79
2022/09/05 06:12:10;;;;;;;6.72;4.00;;;16.90;99.90;;;;;;4995526;28;20041;-80
2022/09/05 06:14:39;;;;;;;6.15;4.10;;;17.20;99.90;;;;;;4980247;28;20042;-80
2022/09/05 06:17:30;;;;;;;6.05;3.92;;;17.50;99.90;;;;;;4994213;28;20112;-80
2022/09/05 06:20:11;;;;;;;5.50;3.70;;;17.80;99.90;;;;;;4980446;28;20038;-80
2022/09/05 06:23:16;;;;;;;5.45;3.90;;;18.00;99.90;;;;;;4997130;28;20038;-80
2022/09/05 06:25:47;;;;;;;6.85;3.90;;;18.20;99.90;;;;;;5002509;28;20168;-80
2022/09/05 06:28:24;;;;;;;5.68;3.75;;;18.70;99.90;;;;;;4994960;28;20546;-81
2022/09/05 06:31:33;;;;;;;6.05;4.07;;;19.50;99.90;;;;;;5016607;28;20049;-82
2022/09/05 06:34:39;;;;;;;5.38;3.80;;;20.90;99.90;;;;;;4983472;28;20054;-82
2022/09/05 06:40:28;;;;;;;7.95;3.65;;;24.00;94.40;;;;;;5031275;28;20100;-83
2022/09/05 06:43:00;;;;;;;6.05;3.55;;;24.90;92.70;;;;;;5014164;28;20064;-83
2022/09/05 06:45:48;;;;;;;4.90;2.70;;;25.40;91.60;;;;;;4999409;28;20506;-82
2022/09/05 06:48:24;;;;;;;5.78;3.70;;;26.40;90.50;;;;;;4976945;28;20061;-82
2022/09/05 06:50:50;;;;;;;;;;;27.20;89.40;;;;;;5000255;28;20543;-81
2022/09/05 06:53:42;;;;;;;4.33;2.87;;;27.30;86.50;;;;;;4984973;28;20008;-81
2022/09/05 06:56:33;;;;;;;6.45;3.10;;;28.30;84.40;;;;;;4975607;28;20060;-81
2022/09/05 06:59:14;;;;;;;5.85;2.80;;;28.00;83.80;;;;;;5009339;28;20063;-81
2022/09/05 07:01:56;;;;;;;4.65;2.92;;;28.60;83.20;;;;;;5002050;28;20037;-79
2022/09/05 07:04:52;;;;;;;8.73;3.38;;;29.00;83.80;;;;;;5044827;28;20045;-80
2022/09/05 07:07:58;;;;;;;5.82;2.85;;;28.90;82.40;;;;;;5003576;28;20498;-80
2022/09/05 07:10:32;;;;;;;3.92;2.80;;;29.30;81.30;;;;;;4960543;28;20054;-80
2022/09/05 07:13:14;;;;;;;4.82;3.03;;;29.40;79.50;;;;;;5013103;28;20132;-80
2022/09/05 07:15:59;;;;;;;4.63;2.72;;;29.80;79.70;;;;;;5010274;28;20069;-79
2022/09/05 07:18:57;;;;;;;3.90;2.92;;;30.00;79.00;;;;;;5003310;28;20038;-81
2022/09/05 07:21:34;;;;;;;4.07;2.85;;;30.10;78.80;;;;;;5019510;28;20041;-81
2022/09/05 07:24:11;;;;;;;4.95;2.83;;;29.50;78.00;;;;;;4992704;28;20033;-81
2022/09/05 07:26:47;;;;;;;4.72;3.00;;;29.40;78.70;;;;;;5019298;28;20054;-81
2022/09/05 07:29:19;;;;;;;4.90;2.88;;;29.80;79.20;;;;;;5016228;28;20079;-81
2022/09/05 07:31:50;;;;;;;4.63;2.90;;;30.10;78.00;;;;;;5025885;28;20095;-81
2022/09/05 07:34:22;;;;;;;3.78;2.70;;;30.10;77.00;;;;;;5018592;28;20033;-80
2022/09/05 07:36:55;;;;;;;7.18;2.67;;;30.00;77.80;;;;;;5010174;28;20469;-80
2022/09/05 07:39:28;;;;;;;9.25;2.80;;;30.40;77.20;;;;;;5003299;28;20448;-80
2022/09/05 07:41:57;;;;;;;3.70;2.70;;;30.20;76.50;;;;;;5002669;28;20392;-80
2022/09/05 07:44:30;;;;;;;4.82;2.67;;;30.60;77.50;;;;;;5018539;28;20045;-80
2022/09/05 07:47:05;;;;;;;6.55;3.28;;;30.90;78.60;;;;;;5017812;28;20123;-80
2022/09/05 07:49:32;;;;;;;;;;;31.40;76.70;;;;;;5019546;28;20049;-80
2022/09/05 07:52:04;;;;;;;3.20;2.38;;;31.70;76.10;;;;;;5018951;28;20299;-80
2022/09/05 07:54:34;;;;;;;4.70;2.30;;;31.90;74.80;;;;;;5018244;28;20049;-80
2022/09/05 07:57:04;;;;;;;5.85;2.60;;;32.00;74.60;;;;;;5002548;28;20050;-80
2022/09/05 07:59:37;;;;;;;3.22;2.13;;;31.50;75.20;;;;;;5018446;28;20044;-80
2022/09/05 08:02:04;;;;;;;4.20;2.80;;;30.80;75.20;;;;;;5018607;28;20116;-80
2022/09/05 08:04:35;;;;;;;3.83;2.47;;;30.80;76.60;;;;;;5002242;28;20488;-80
2022/09/05 08:07:16;;;;;;;4.07;2.20;;;31.30;76.10;;;;;;4998995;28;20053;-81
2022/09/05 08:09:56;;;;;;;3.78;2.53;;;31.20;75.90;;;;;;5015903;28;20043;-82
2022/09/05 08:12:37;;;;;;;4.82;2.72;;;31.60;76.40;;;;;;5018361;28;20579;-82
2022/09/05 08:15:13;;;;;;;3.95;2.78;;;31.50;77.30;;;;;;5018283;28;20175;-81
2022/09/05 08:17:54;;;;;;;4.40;2.35;;;31.50;75.50;;;;;;5017055;28;20388;-82
2022/09/05 08:21:02;;;;;;;4.10;2.25;;;31.40;76.60;;;;;;5014714;28;20399;-81
2022/09/05 08:23:40;;;;;;;4.95;2.72;;;31.30;75.80;;;;;;4996022;28;20060;-81
2022/09/05 08:26:19;;;;;;;4.75;2.75;;;31.20;76.40;;;;;;5013042;28;20068;-81
2022/09/05 08:29:19;;;;;;;5.00;2.40;;;31.10;75.60;;;;;;5025141;28;20033;-81
2022/09/05 08:31:52;;;;;;;5.30;2.42;;;31.80;75.90;;;;;;5018185;28;20048;-81
2022/09/05 08:34:32;;;;;;;4.32;2.55;;;32.30;75.70;;;;;;5001925;28;20488;-82
2022/09/05 08:36:59;;;;;;;4.22;2.45;;;32.60;74.30;;;;;;5017141;28;20064;-81
2022/09/05 08:39:30;;;;;;;8.70;2.42;;;33.20;74.60;;;;;;5017307;28;20353;-81
2022/09/05 08:42:14;;;;;;;3.60;2.45;;;33.40;74.30;;;;;;5016779;28;20046;-81
2022/09/05 08:45:02;;;;;;;3.08;2.10;;;33.70;73.70;;;;;;5017125;28;20505;-81
2022/09/05 08:47:57;;;;;;;6.90;2.60;;;33.90;73.90;;;;;;5016394;28;20451;-80
2022/09/05 08:51:05;;;;;;;4.77;2.47;;;33.90;72.90;;;;;;4990871;28;20073;-80
2022/09/05 08:53:46;;;;;;;5.38;2.83;;;34.00;73.00;;;;;;5015410;28;20044;-80
2022/09/05 08:56:22;;;;;;;2.65;2.22;;;33.80;72.10;;;;;;4995441;28;20116;-80
2022/09/05 08:59:21;;;;;;;3.53;2.47;;;33.60;72.80;;;;;;4997200;28;20065;-80
2022/09/05 09:02:35;;;;;;;4.53;2.30;;;33.70;72.90;;;;;;5008456;28;20164;-80
2022/09/05 09:05:19;;;;;;;2.78;2.00;;;34.00;72.30;;;;;;4992546;28;20136;-80
2022/09/05 09:08:02;;;;;;;5.53;2.53;;;34.80;72.90;;;;;;4994995;28;20038;-80
2022/09/05 09:11:05;;;;;;;3.25;2.22;;;35.00;71.60;;;;;;5016637;28;20103;-80
2022/09/05 09:13:54;;;;;;;4.10;2.25;;;35.80;70.70;;;;;;5012579;28;20041;-80
2022/09/05 09:16:26;;;;;;;3.63;2.15;;;35.70;71.10;;;;;;5015677;28;20356;-80
2022/09/05 09:18:52;;;;;;;3.88;2.42;;;36.10;72.30;;;;;;5007709;28;20047;-80
2022/09/05 09:21:49;;;;;;;4.05;2.00;;;35.70;70.20;;;;;;5016498;28;20387;-80
2022/09/05 09:24:30;;;;;;;3.25;2.40;;;36.50;70.40;;;;;;5012783;28;20040;-80
2022/09/05 09:27:04;;;;;;;4.65;2.38;;;36.30;69.20;;;;;;5012494;28;20448;-80
2022/09/05 09:29:35;;;;;;;3.40;2.13;;;37.40;68.50;;;;;;5016097;28;20045;-80
2022/09/05 09:32:07;;;;;;;3.28;2.00;;;37.60;69.00;;;;;;5015644;28;20045;-80
2022/09/05 09:34:47;;;;;;;5.28;2.10;;;38.40;67.40;;;;;;5008147;28;20781;-80
2022/09/05 09:40:29;;;;;;;2.90;1.98;;;37.90;66.80;;;;;;5109865;27;20419;-79
2022/09/05 09:43:26;;;;;;;2.97;2.03;;;38.20;66.80;;;;;;5052601;28;20044;-79
2022/09/05 09:46:26;;;;;;;1.60;1.50;;;38.00;66.60;;;;;;5069308;28;20047;-79
2022/09/05 09:49:13;;;;;;;3.38;1.70;;;37.70;66.10;;;;;;5071330;28;20040;-80
2022/09/05 09:52:14;;;;;;;3.58;2.20;;;37.50;67.00;;;;;;5072771;28;20036;-81
2022/09/05 09:55:17;;;;;;;2.88;2.05;;;37.60;66.20;;;;;;5063902;28;20054;-81
2022/09/05 09:57:49;;;;;;;3.45;2.30;;;37.80;67.10;;;;;;5063801;28;20036;-81
2022/09/05 10:00:20;;;;;;;3.70;2.17;;;37.70;66.50;;;;;;5070367;28;20111;-81
2022/09/05 10:02:51;;;;;;;2.80;1.63;;;37.40;66.60;;;;;;5071375;28;20404;-80
2022/09/05 10:05:51;;;;;;;2.80;1.70;;;37.20;67.30;;;;;;5071022;28;20041;-80
2022/09/05 10:08:54;;;;;;;2.47;1.77;;;37.60;66.40;;;;;;5072052;28;20401;-80
2022/09/05 10:11:49;;;;;;;5.38;1.80;;;37.70;65.60;;;;;;5052618;28;20049;-80
2022/09/05 10:14:52;;;;;;;2.25;1.77;;;37.80;65.00;;;;;;5081030;28;20509;-80
2022/09/05 10:17:30;;;;;;;3.25;1.90;;;38.70;64.90;;;;;;5087273;28;20075;-80
2022/09/05 10:20:22;;;;;;;3.42;1.95;;;38.90;63.30;;;;;;5067936;28;20036;-80
2022/09/05 10:23:09;;;;;;;3.50;1.90;;;38.60;64.00;;;;;;5069471;28;20098;-81
2022/09/05 10:25:57;;;;;;;2.45;1.67;;;38.90;64.30;;;;;;5070552;28;20123;-81
2022/09/05 10:28:55;;;;;;;2.67;1.77;;;39.00;64.30;;;;;;5049733;28;20044;-81
2022/09/05 10:31:33;;;;;;;1.80;1.50;;;39.20;62.70;;;;;;5063078;28;20406;-81
2022/09/05 10:34:17;;;;;;;2.75;1.50;;;40.10;64.90;;;;;;5067295;28;20083;-81
2022/09/05 10:37:01;;;;;;;2.60;1.65;;;40.40;63.30;;;;;;5070543;28;20048;-81
2022/09/05 10:39:38;;;;;;;2.53;1.40;;;40.40;61.80;;;;;;5054004;28;20482;-81
2022/09/05 10:42:15;;;;;;;2.88;1.75;;;39.60;63.20;;;;;;5035321;28;20044;-81
2022/09/05 10:44:56;;;;;;;3.88;1.70;;;39.80;62.10;;;;;;5065084;28;20044;-81
2022/09/05 10:47:56;;;;;;;5.70;1.88;;;39.90;62.50;;;;;;5086756;28;20064;-81
2022/09/05 10:50:29;;;;;;;2.35;1.63;;;40.10;62.70;;;;;;5059868;28;20377;-81
2022/09/05 10:53:34;;;;;;;1.65;1.52;;;40.20;61.70;;;;;;5058325;28;20040;-81
2022/09/05 10:56:15;;;;;;;2.17;1.57;;;39.30;61.60;;;;;;5057568;28;20478;-81
2022/09/05 10:59:01;;;;;;;3.67;1.50;;;38.80;61.30;;;;;;5057325;28;20086;-81
2022/09/05 11:01:40;;;;;;;2.10;1.50;;;39.00;61.80;;;;;;5039139;28;20029;-81
2022/09/05 11:04:25;;;;;;;4.18;1.88;;;39.40;63.60;;;;;;5055155;28;20043;-81
2022/09/05 11:06:55;;;;;;;;;;;39.30;61.10;;;;;;5074643;28;20765;-81
2022/09/05 11:09:27;;;;;;;2.35;1.80;;;39.60;61.60;;;;;;5057584;28;19963;-81
2022/09/05 11:12:05;;;;;;;3.40;1.60;;;38.50;61.50;;;;;;5055662;28;20482;-81
2022/09/05 11:14:51;;;;;;;2.28;1.40;;;37.90;61.70;;;;;;5054220;28;20052;-81
2022/09/05 11:17:39;;;;;;;1.35;1.20;;;38.70;62.60;;;;;;5058251;28;20056;-81
2022/09/05 11:20:46;;;;;;;2.42;1.33;;;38.50;61.90;;;;;;5056879;28;20055;-81
2022/09/05 11:23:22;;;;;;;2.78;1.58;;;38.60;62.00;;;;;;5046291;28;20063;-81
2022/09/05 11:26:07;;;;;;;2.03;1.60;;;38.10;62.20;;;;;;5056732;28;20119;-81
2022/09/05 11:28:35;;;;;;;;;;;37.30;63.40;;;;;;5037441;28;20040;-81
2022/09/05 11:31:09;;;;;;;2.33;1.70;;;37.10;65.10;;;;;;5057690;28;19923;-81
2022/09/05 11:33:49;;;;;;;1.80;1.35;;;36.90;63.00;;;;;;5055553;28;20050;-81
2022/09/05 11:36:23;;;;;;;2.63;1.50;;;36.90;65.90;;;;;;5056328;28;20048;-81
2022/09/05 11:38:59;;;;;;;2.00;1.42;;;36.70;64.60;;;;;;5053511;28;20056;-82
2022/09/05 11:42:04;;;;;;;1.40;1.30;;;36.90;63.10;;;;;;5071881;28;20470;-84
2022/09/05 11:44:41;;;;;;;2.05;1.40;;;36.60;63.30;;;;;;5070112;28;20471;-81
2022/09/05 11:47:26;;;;;;;2.40;1.60;;;36.90;63.60;;;;;;5071289;28;20032;-81
2022/09/05 11:50:29;;;;;;;3.05;1.38;;;37.10;63.70;;;;;;5055100;28;20040;-81
2022/09/05 11:53:20;;;;;;;1.75;1.50;;;37.10;62.10;;;;;;5054709;28;20040;-81
2022/09/05 11:56:24;;;;;;;1.67;1.33;;;36.80;63.30;;;;;;5056480;28;20040;-81
2022/09/05 11:59:18;;;;;;;2.53;1.50;;;36.00;64.90;;;;;;5032394;28;20106;-81
2022/09/05 12:02:05;;;;;;;2.10;1.45;;;35.50;64.00;;;;;;5055013;28;20509;-81
2022/09/05 12:05:17;;;;;;;2.33;1.60;;;35.10;64.20;;;;;;5051565;28;20044;-80
2022/09/05 12:07:42;;;;;;;4.70;1.42;;;34.60;65.90;;;;;;4995692;28;20055;-80
2022/09/05 12:10:46;;;;;;;2.92;1.70;;;35.10;65.20;;;;;;5048514;28;20037;-80
2022/09/05 12:13:17;;;;;;;2.97;1.50;;;35.40;65.40;;;;;;5047639;28;21869;-81
2022/09/05 12:15:45;;;;;;;2.03;1.63;;;35.80;64.40;;;;;;5054479;28;20059;-82
2022/09/05 12:18:46;;;;;;;1.60;1.33;;;35.40;64.10;;;;;;5055667;28;20105;-81
2022/09/05 12:21:36;;;;;;;3.80;1.65;;;34.80;64.60;;;;;;5054861;28;20032;-81
2022/09/05 12:24:23;;;;;;;1.65;1.40;;;34.40;65.00;;;;;;5055753;28;20067;-81
2022/09/05 12:27:12;;;;;;;2.10;1.45;;;33.90;64.80;;;;;;5050522;28;20177;-81
2022/09/05 12:29:40;;;;;;;3.45;1.55;;;33.90;64.90;;;;;;5055679;28;20086;-81
2022/09/05 12:32:14;;;;;;;2.92;1.35;;;34.20;67.30;;;;;;5056916;28;20440;-81
2022/09/05 12:34:50;;;;;;;3.05;1.70;;;34.00;64.20;;;;;;5055463;28;20037;-81
2022/09/05 12:37:22;;;;;;;2.20;1.60;;;33.80;63.70;;;;;;5070825;28;20433;-81
2022/09/05 12:40:00;;;;;;;1.75;1.33;;;34.00;65.20;;;;;;5035223;28;20044;-80
2022/09/05 12:42:38;;;;;;;2.60;1.50;;;34.00;66.00;;;;;;5053342;28;20045;-80
2022/09/05 12:45:19;;;;;;;2.50;1.60;;;34.20;65.50;;;;;;5050395;28;20041;-81
2022/09/05 12:47:51;;;;;;;2.10;1.40;;;34.40;65.30;;;;;;5050602;28;20379;-81
2022/09/05 12:50:19;;;;;;;2.85;1.60;;;34.50;65.90;;;;;;5052368;28;20063;-80
2022/09/05 12:52:50;;;;;;;2.33;1.67;;;34.50;65.80;;;;;;5052737;28;20061;-80
2022/09/05 12:55:15;;;;;;;2.30;1.40;;;34.70;65.80;;;;;;5049927;28;20470;-80
2022/09/05 12:57:43;;;;;;;2.30;1.30;;;34.80;65.40;;;;;;5050978;28;20036;-80
2022/09/05 13:00:12;;;;;;;1.42;1.23;;;34.90;65.10;;;;;;5034522;28;20048;-80
2022/09/05 13:02:44;;;;;;;3.28;1.38;;;35.00;63.20;;;;;;5051087;28;20123;-80
2022/09/05 13:05:14;;;;;;;1.80;1.33;;;34.70;62.30;;;;;;5066781;28;20101;-80
2022/09/05 13:07:58;;;;;;;1.45;1.20;;;34.00;62.30;;;;;;5052088;28;20413;-80
2022/09/05 13:10:34;;;;;;;2.08;1.50;;;34.00;63.30;;;;;;5052851;28;20036;-80
2022/09/05 13:13:06;;;;;;;2.30;1.48;;;34.10;64.00;;;;;;5050817;28;20041;-80
2022/09/05 13:15:36;;;;;;;1.60;1.27;;;34.00;62.50;;;;;;5051465;28;20352;-80
2022/09/05 13:18:09;;;;;;;1.95;1.48;;;34.10;64.40;;;;;;5052684;28;20039;-80
2022/09/05 13:20:36;;;;;;;2.22;1.50;;;34.50;62.40;;;;;;5048212;28;20041;-80
2022/09/05 13:23:10;;;;;;;1.83;1.33;;;34.90;63.00;;;;;;5050938;28;20063;-80
2022/09/05 13:25:41;;;;;;;2.38;1.30;;;35.20;62.30;;;;;;5051704;28;20039;-80
2022/09/05 13:28:10;;;;;;;2.33;1.75;;;35.00;61.70;;;;;;5052403;28;20037;-80
2022/09/05 13:30:47;;;;;;;3.10;1.42;;;35.00;63.80;;;;;;5049667;28;20037;-81
2022/09/05 13:33:34;;;;;;;1.92;1.60;;;35.00;60.80;;;;;;5051123;28;20371;-80
2022/09/05 13:36:04;;;;;;;3.53;1.50;;;35.00;60.80;;;;;;5035202;28;20033;-80
2022/09/05 13:38:41;;;;;;;1.27;1.10;;;34.90;62.80;;;;;;5057269;28;20499;-80
2022/09/05 13:41:14;;;;;;;2.92;1.52;;;34.70;62.60;;;;;;5057074;28;20041;-81
2022/09/05 13:43:40;;;;;;;3.25;1.30;;;34.60;61.80;;;;;;5050388;28;20127;-80
2022/09/05 13:46:38;;;;;;;2.58;1.80;;;34.70;61.70;;;;;;5050832;28;20033;-80
2022/09/05 13:49:29;;;;;;;2.70;1.42;;;34.80;61.30;;;;;;5052121;28;20053;-81
2022/09/05 13:52:15;;;;;;;4.68;1.30;;;35.00;60.60;;;;;;5050757;28;20049;-81
2022/09/05 13:54:41;;;;;;;1.63;1.30;;;34.80;61.00;;;;;;5044228;28;20107;-80
2022/09/05 13:57:21;;;;;;;2.50;1.70;;;34.90;59.80;;;;;;5052067;28;20080;-80
2022/09/05 14:00:06;;;;;;;2.45;1.35;;;34.90;61.40;;;;;;5051449;28;20048;-80
2022/09/05 14:03:02;;;;;;;9.07;1.60;;;34.80;61.80;;;;;;5050662;28;20588;-80
2022/09/05 14:06:05;;;;;;;1.90;1.30;;;34.80;61.60;;;;;;5051204;28;20037;-81
2022/09/05 14:08:42;;;;;;;3.40;1.70;;;34.70;61.60;;;;;;5051108;28;20111;-80
2022/09/05 14:11:17;;;;;;;1.90;1.38;;;34.70;62.00;;;;;;5051537;28;20051;-81
2022/09/05 14:13:58;;;;;;;1.38;1.15;;;34.60;62.30;;;;;;5051250;28;20471;-80